sensor_id;sensor_type;location;lat;lon;timestamp;pressure;altitude;pressure_sealevel;temperature;humidity
62928;BME280;51070;52.236;-0.892;2023-02-23T00:00:51;100689.48;;;6.29;95.80
62928;BME280;51070;52.236;-0.892;2023-02-23T00:03:17;100691.61;;;6.30;95.70
62928;BME280;51070;52.236;-0.892;2023-02-23T00:05:42;100694.83;;;6.29;95.66
62928;BME280;51070;52.236;-0.892;2023-02-23T00:08:08;100693.39;;;6.32;95.84
62928;BME280;51070;52.236;-0.892;2023-02-23T00:10:33;100696.20;;;6.33;95.46
62928;BME280;51070;52.236;-0.892;2023-02-23T00:22:08;100695.06;;;6.27;94.87
62928;BME280;51070;52.236;-0.892;2023-02-23T00:24:33;100694.63;;;6.25;94.75
62928;BME280;51070;52.236;-0.892;2023-02-23T00:27:01;100698.23;;;6.25;94.81
62928;BME280;51070;52.236;-0.892;2023-02-23T00:29:30;100700.80;;;6.25;94.74
62928;BME280;51070;52.236;-0.892;2023-02-23T00:32:02;100701.31;;;6.25;94.75
62928;BME280;51070;52.236;-0.892;2023-02-23T00:34:27;100700.60;;;6.28;94.86
62928;BME280;51070;52.236;-0.892;2023-02-23T00:36:53;100702.20;;;6.29;94.63
62928;BME280;51070;52.236;-0.892;2023-02-23T00:39:19;100700.60;;;6.28;94.51
62928;BME280;51070;52.236;-0.892;2023-02-23T00:41:51;100702.74;;;6.26;94.44
62928;BME280;51070;52.236;-0.892;2023-02-23T00:44:16;100702.09;;;6.23;94.39
62928;BME280;51070;52.236;-0.892;2023-02-23T00:46:42;100700.15;;;6.19;94.35
62928;BME280;51070;52.236;-0.892;2023-02-23T00:49:08;100699.12;;;6.15;94.44
62928;BME280;51070;52.236;-0.892;2023-02-23T00:51:35;100699.41;;;6.14;94.40
62928;BME280;51070;52.236;-0.892;2023-02-23T00:54:01;100701.23;;;6.13;94.38
62928;BME280;51070;52.236;-0.892;2023-02-23T00:56:27;100701.05;;;6.13;94.29
62928;BME280;51070;52.236;-0.892;2023-02-23T00:58:53;100701.95;;;6.11;94.21
62928;BME280;51070;52.236;-0.892;2023-02-23T01:01:18;100705.48;;;6.09;94.13
62928;BME280;51070;52.236;-0.892;2023-02-23T01:03:44;100707.05;;;6.06;93.89
62928;BME280;51070;52.236;-0.892;2023-02-23T01:06:10;100708.68;;;6.04;93.93
62928;BME280;51070;52.236;-0.892;2023-02-23T01:08:37;100707.58;;;6.03;93.86
62928;BME280;51070;52.236;-0.892;2023-02-23T01:11:06;100708.14;;;6.01;93.87
62928;BME280;51070;52.236;-0.892;2023-02-23T01:13:33;100707.77;;;6.00;93.87
62928;BME280;51070;52.236;-0.892;2023-02-23T01:15:59;100707.67;;;5.98;93.74
62928;BME280;51070;52.236;-0.892;2023-02-23T01:18:24;100714.09;;;5.96;93.62
62928;BME280;51070;52.236;-0.892;2023-02-23T01:20:49;100711.24;;;5.94;93.74
62928;BME280;51070;52.236;-0.892;2023-02-23T01:23:15;100711.06;;;5.94;93.67
62928;BME280;51070;52.236;-0.892;2023-02-23T01:25:41;100712.98;;;5.95;93.70
62928;BME280;51070;52.236;-0.892;2023-02-23T01:28:08;100713.58;;;5.96;93.61
62928;BME280;51070;52.236;-0.892;2023-02-23T01:30:33;100714.86;;;5.98;93.53
62928;BME280;51070;52.236;-0.892;2023-02-23T01:32:59;100716.63;;;5.99;93.45
62928;BME280;51070;52.236;-0.892;2023-02-23T01:35:26;100718.25;;;6.00;93.45
62928;BME280;51070;52.236;-0.892;2023-02-23T01:37:52;100722.45;;;6.02;93.12
62928;BME280;51070;52.236;-0.892;2023-02-23T01:40:19;100720.30;;;6.03;93.06
62928;BME280;51070;52.236;-0.892;2023-02-23T01:42:58;100721.77;;;6.05;93.06
62928;BME280;51070;52.236;-0.892;2023-02-23T01:47:54;100725.94;;;6.07;92.73
62928;BME280;51070;52.236;-0.892;2023-02-23T01:50:21;100728.27;;;6.05;92.58
62928;BME280;51070;52.236;-0.892;2023-02-23T01:52:48;100732.20;;;6.05;92.62
62928;BME280;51070;52.236;-0.892;2023-02-23T01:55:15;100733.90;;;6.05;92.51
62928;BME280;51070;52.236;-0.892;2023-02-23T01:57:47;100730.85;;;6.06;92.25
62928;BME280;51070;52.236;-0.892;2023-02-23T02:00:13;100730.01;;;6.06;92.19
62928;BME280;51070;52.236;-0.892;2023-02-23T02:02:39;100731.27;;;6.07;92.10
62928;BME280;51070;52.236;-0.892;2023-02-23T02:05:06;100728.42;;;6.08;92.20
62928;BME280;51070;52.236;-0.892;2023-02-23T02:07:37;100729.01;;;6.09;91.87
62928;BME280;51070;52.236;-0.892;2023-02-23T02:10:04;100732.01;;;6.08;91.69
62928;BME280;51070;52.236;-0.892;2023-02-23T02:12:45;100737.27;;;6.07;91.69
62928;BME280;51070;52.236;-0.892;2023-02-23T02:15:16;100735.52;;;6.06;91.78
62928;BME280;51070;52.236;-0.892;2023-02-23T02:28:42;100739.90;;;6.14;91.76
62928;BME280;51070;52.236;-0.892;2023-02-23T02:41:37;100734.98;;;6.09;92.10
62928;BME280;51070;52.236;-0.892;2023-02-23T02:44:16;100735.33;;;6.09;92.32
62928;BME280;51070;52.236;-0.892;2023-02-23T02:46:45;100736.19;;;6.09;92.41
62928;BME280;51070;52.236;-0.892;2023-02-23T02:49:25;100741.11;;;6.08;92.61
62928;BME280;51070;52.236;-0.892;2023-02-23T02:51:55;100740.39;;;6.07;92.71
62928;BME280;51070;52.236;-0.892;2023-02-23T02:56:51;100740.23;;;6.01;92.89
62928;BME280;51070;52.236;-0.892;2023-02-23T02:59:21;100743.40;;;5.99;93.04
62928;BME280;51070;52.236;-0.892;2023-02-23T03:02:06;100740.97;;;5.98;93.28
62928;BME280;51070;52.236;-0.892;2023-02-23T03:04:56;100742.00;;;5.98;93.32
62928;BME280;51070;52.236;-0.892;2023-02-23T03:08:16;100741.48;;;5.98;93.37
62928;BME280;51070;52.236;-0.892;2023-02-23T03:17:11;100739.75;;;5.95;93.65
62928;BME280;51070;52.236;-0.892;2023-02-23T03:25:53;100744.86;;;5.87;94.26
62928;BME280;51070;52.236;-0.892;2023-02-23T03:28:45;100747.61;;;5.87;94.46
62928;BME280;51070;52.236;-0.892;2023-02-23T03:34:45;100752.63;;;5.91;94.60
62928;BME280;51070;52.236;-0.892;2023-02-23T03:37:35;100756.35;;;5.94;94.83
62928;BME280;51070;52.236;-0.892;2023-02-23T03:40:24;100760.83;;;5.95;95.20
62928;BME280;51070;52.236;-0.892;2023-02-23T03:43:11;100764.55;;;5.93;95.64
62928;BME280;51070;52.236;-0.892;2023-02-23T03:45:56;100768.88;;;5.91;96.33
62928;BME280;51070;52.236;-0.892;2023-02-23T03:48:41;100767.80;;;5.86;96.89
62928;BME280;51070;52.236;-0.892;2023-02-23T03:51:26;100772.86;;;5.82;97.49
62928;BME280;51070;52.236;-0.892;2023-02-23T03:54:17;100771.11;;;5.78;98.01
62928;BME280;51070;52.236;-0.892;2023-02-23T03:57:04;100776.75;;;5.77;98.55
62928;BME280;51070;52.236;-0.892;2023-02-23T03:59:55;100777.02;;;5.76;98.72
62928;BME280;51070;52.236;-0.892;2023-02-23T04:02:40;100779.29;;;5.77;98.76
62928;BME280;51070;52.236;-0.892;2023-02-23T04:05:25;100779.56;;;5.79;98.68
62928;BME280;51070;52.236;-0.892;2023-02-23T04:08:13;100776.77;;;5.84;98.63
62928;BME280;51070;52.236;-0.892;2023-02-23T04:11:11;100785.18;;;5.87;98.11
62928;BME280;51070;52.236;-0.892;2023-02-23T04:13:59;100786.17;;;5.90;98.02
62928;BME280;51070;52.236;-0.892;2023-02-23T04:16:25;100789.13;;;5.91;97.77
62928;BME280;51070;52.236;-0.892;2023-02-23T04:18:52;100792.75;;;5.91;97.62
62928;BME280;51070;52.236;-0.892;2023-02-23T04:21:17;100791.76;;;5.92;97.59
62928;BME280;51070;52.236;-0.892;2023-02-23T04:23:43;100790.79;;;5.93;97.51
62928;BME280;51070;52.236;-0.892;2023-02-23T04:26:08;100791.58;;;5.95;97.50
62928;BME280;51070;52.236;-0.892;2023-02-23T04:28:34;100792.04;;;5.97;97.48
62928;BME280;51070;52.236;-0.892;2023-02-23T04:30:59;100799.45;;;5.98;97.12
62928;BME280;51070;52.236;-0.892;2023-02-23T04:33:26;100796.25;;;5.99;96.94
62928;BME280;51070;52.236;-0.892;2023-02-23T04:35:52;100800.21;;;6.00;96.83
62928;BME280;51070;52.236;-0.892;2023-02-23T04:38:18;100800.05;;;6.00;96.65
62928;BME280;51070;52.236;-0.892;2023-02-23T04:40:43;100801.75;;;6.00;96.63
62928;BME280;51070;52.236;-0.892;2023-02-23T04:43:12;100803.70;;;6.01;96.57
62928;BME280;51070;52.236;-0.892;2023-02-23T04:45:37;100804.45;;;6.02;96.48
62928;BME280;51070;52.236;-0.892;2023-02-23T04:48:03;100813.47;;;6.04;96.26
62928;BME280;51070;52.236;-0.892;2023-02-23T04:50:28;100811.81;;;6.05;96.08
62928;BME280;51070;52.236;-0.892;2023-02-23T04:52:54;100815.73;;;6.07;96.11
62928;BME280;51070;52.236;-0.892;2023-02-23T04:55:21;100819.08;;;6.09;95.90
62928;BME280;51070;52.236;-0.892;2023-02-23T04:57:47;100818.43;;;6.10;95.74
62928;BME280;51070;52.236;-0.892;2023-02-23T05:00:13;100821.86;;;6.10;95.40
62928;BME280;51070;52.236;-0.892;2023-02-23T05:02:39;100823.90;;;6.09;95.30
62928;BME280;51070;52.236;-0.892;2023-02-23T05:05:04;100833.29;;;6.09;95.36
62928;BME280;51070;52.236;-0.892;2023-02-23T05:07:31;100831.05;;;6.09;95.21
62928;BME280;51070;52.236;-0.892;2023-02-23T05:09:56;100832.52;;;6.10;95.30
62928;BME280;51070;52.236;-0.892;2023-02-23T05:12:21;100840.52;;;6.12;95.22
62928;BME280;51070;52.236;-0.892;2023-02-23T05:14:47;100842.20;;;6.15;95.13
62928;BME280;51070;52.236;-0.892;2023-02-23T05:17:12;100842.23;;;6.16;94.95
62928;BME280;51070;52.236;-0.892;2023-02-23T05:19:37;100844.48;;;6.16;94.82
62928;BME280;51070;52.236;-0.892;2023-02-23T05:22:02;100844.89;;;6.17;94.69
62928;BME280;51070;52.236;-0.892;2023-02-23T05:24:28;100848.02;;;6.18;94.42
62928;BME280;51070;52.236;-0.892;2023-02-23T05:26:53;100850.80;;;6.19;94.17
62928;BME280;51070;52.236;-0.892;2023-02-23T05:29:18;100857.10;;;6.18;94.11
62928;BME280;51070;52.236;-0.892;2023-02-23T05:31:44;100859.13;;;6.17;94.04
62928;BME280;51070;52.236;-0.892;2023-02-23T05:34:09;100865.64;;;6.17;94.20
62928;BME280;51070;52.236;-0.892;2023-02-23T05:36:35;100864.44;;;6.17;93.91
62928;BME280;51070;52.236;-0.892;2023-02-23T05:39:02;100871.91;;;6.15;93.66
62928;BME280;51070;52.236;-0.892;2023-02-23T05:41:27;100876.16;;;6.14;93.64
62928;BME280;51070;52.236;-0.892;2023-02-23T05:43:53;100876.05;;;6.16;93.70
62928;BME280;51070;52.236;-0.892;2023-02-23T05:46:20;100878.29;;;6.19;93.70
62928;BME280;51070;52.236;-0.892;2023-02-23T05:48:46;100877.38;;;6.22;93.43
62928;BME280;51070;52.236;-0.892;2023-02-23T05:51:12;100882.77;;;6.23;93.45
62928;BME280;51070;52.236;-0.892;2023-02-23T05:53:38;100880.63;;;6.25;93.57
62928;BME280;51070;52.236;-0.892;2023-02-23T05:56:04;100883.63;;;6.26;93.83
62928;BME280;51070;52.236;-0.892;2023-02-23T05:58:30;100879.02;;;6.26;93.77
62928;BME280;51070;52.236;-0.892;2023-02-23T06:00:56;100880.47;;;6.25;93.79
62928;BME280;51070;52.236;-0.892;2023-02-23T06:03:21;100884.64;;;6.23;93.62
62928;BME280;51070;52.236;-0.892;2023-02-23T06:05:53;100889.88;;;6.21;93.52
62928;BME280;51070;52.236;-0.892;2023-02-23T06:08:19;100889.86;;;6.21;93.34
62928;BME280;51070;52.236;-0.892;2023-02-23T06:10:45;100889.50;;;6.20;93.00
62928;BME280;51070;52.236;-0.892;2023-02-23T06:13:10;100895.29;;;6.19;92.52
62928;BME280;51070;52.236;-0.892;2023-02-23T06:15:36;100891.98;;;6.19;92.25
62928;BME280;51070;52.236;-0.892;2023-02-23T06:18:01;100899.70;;;6.19;92.34
62928;BME280;51070;52.236;-0.892;2023-02-23T06:20:27;100899.53;;;6.19;92.30
62928;BME280;51070;52.236;-0.892;2023-02-23T06:22:52;100905.14;;;6.18;92.39
62928;BME280;51070;52.236;-0.892;2023-02-23T06:25:17;100912.45;;;6.17;92.41
62928;BME280;51070;52.236;-0.892;2023-02-23T06:27:42;100914.40;;;6.14;92.28
62928;BME280;51070;52.236;-0.892;2023-02-23T06:30:08;100925.64;;;6.13;92.24
62928;BME280;51070;52.236;-0.892;2023-02-23T06:32:33;100924.84;;;6.11;92.00
62928;BME280;51070;52.236;-0.892;2023-02-23T06:34:59;100927.86;;;6.09;91.92
62928;BME280;51070;52.236;-0.892;2023-02-23T06:37:24;100933.02;;;6.09;91.69
62928;BME280;51070;52.236;-0.892;2023-02-23T06:39:50;100939.39;;;6.10;91.65
62928;BME280;51070;52.236;-0.892;2023-02-23T06:42:15;100939.58;;;6.10;91.39
62928;BME280;51070;52.236;-0.892;2023-02-23T06:44:41;100940.68;;;6.08;91.00
62928;BME280;51070;52.236;-0.892;2023-02-23T06:47:06;100948.80;;;6.06;90.98
62928;BME280;51070;52.236;-0.892;2023-02-23T06:49:31;100955.23;;;6.05;91.00
62928;BME280;51070;52.236;-0.892;2023-02-23T06:51:57;100955.97;;;6.02;90.89
62928;BME280;51070;52.236;-0.892;2023-02-23T06:54:22;100963.96;;;6.01;90.98
62928;BME280;51070;52.236;-0.892;2023-02-23T06:56:47;100969.89;;;6.00;90.54
62928;BME280;51070;52.236;-0.892;2023-02-23T06:59:14;100974.46;;;5.99;90.76
62928;BME280;51070;52.236;-0.892;2023-02-23T07:01:39;100979.47;;;5.99;90.87
62928;BME280;51070;52.236;-0.892;2023-02-23T07:04:06;100975.36;;;5.99;90.94
62928;BME280;51070;52.236;-0.892;2023-02-23T07:06:31;100977.23;;;5.99;91.00
62928;BME280;51070;52.236;-0.892;2023-02-23T07:08:57;100987.70;;;6.00;91.32
62928;BME280;51070;52.236;-0.892;2023-02-23T07:11:23;100990.52;;;6.01;91.25
62928;BME280;51070;52.236;-0.892;2023-02-23T07:13:48;100997.37;;;6.00;91.18
62928;BME280;51070;52.236;-0.892;2023-02-23T07:16:13;100999.92;;;6.00;91.16
62928;BME280;51070;52.236;-0.892;2023-02-23T07:18:40;101003.96;;;5.99;90.91
62928;BME280;51070;52.236;-0.892;2023-02-23T07:21:05;101011.79;;;5.97;91.08
62928;BME280;51070;52.236;-0.892;2023-02-23T07:23:31;101017.30;;;5.98;91.32
62928;BME280;51070;52.236;-0.892;2023-02-23T07:25:56;101021.36;;;5.97;91.11
62928;BME280;51070;52.236;-0.892;2023-02-23T07:28:23;101032.25;;;5.96;90.91
62928;BME280;51070;52.236;-0.892;2023-02-23T07:30:54;101040.08;;;5.94;90.95
62928;BME280;51070;52.236;-0.892;2023-02-23T07:33:19;101052.48;;;5.95;91.21
62928;BME280;51070;52.236;-0.892;2023-02-23T07:35:44;101058.06;;;5.97;91.20
62928;BME280;51070;52.236;-0.892;2023-02-23T07:38:10;101065.05;;;5.99;91.36
62928;BME280;51070;52.236;-0.892;2023-02-23T07:40:35;101078.94;;;6.02;91.31
62928;BME280;51070;52.236;-0.892;2023-02-23T07:43:00;101083.63;;;6.03;90.76
62928;BME280;51070;52.236;-0.892;2023-02-23T07:45:26;101089.05;;;6.02;90.69
62928;BME280;51070;52.236;-0.892;2023-02-23T07:47:51;101092.86;;;6.02;90.41
62928;BME280;51070;52.236;-0.892;2023-02-23T07:50:16;101083.96;;;6.03;90.32
62928;BME280;51070;52.236;-0.892;2023-02-23T07:52:42;101075.52;;;6.02;90.36
62928;BME280;51070;52.236;-0.892;2023-02-23T07:55:07;101076.13;;;6.01;90.30
62928;BME280;51070;52.236;-0.892;2023-02-23T07:57:33;101080.05;;;6.00;90.11
62928;BME280;51070;52.236;-0.892;2023-02-23T07:59:58;101083.78;;;6.00;90.17
62928;BME280;51070;52.236;-0.892;2023-02-23T08:02:24;101087.52;;;5.99;90.07
62928;BME280;51070;52.236;-0.892;2023-02-23T08:04:49;101092.66;;;5.98;90.02
62928;BME280;51070;52.236;-0.892;2023-02-23T08:07:18;101097.41;;;5.98;89.88
62928;BME280;51070;52.236;-0.892;2023-02-23T08:09:43;101102.84;;;5.97;89.54
62928;BME280;51070;52.236;-0.892;2023-02-23T08:12:09;101105.16;;;5.98;89.48
62928;BME280;51070;52.236;-0.892;2023-02-23T08:14:34;101107.24;;;6.02;89.19
62928;BME280;51070;52.236;-0.892;2023-02-23T08:16:59;101108.05;;;6.04;89.01
62928;BME280;51070;52.236;-0.892;2023-02-23T08:19:25;101108.94;;;6.07;88.68
62928;BME280;51070;52.236;-0.892;2023-02-23T08:21:51;101113.20;;;6.10;88.42
62928;BME280;51070;52.236;-0.892;2023-02-23T08:24:17;101112.20;;;6.13;88.01
62928;BME280;51070;52.236;-0.892;2023-02-23T08:26:42;101112.25;;;6.14;87.82
62928;BME280;51070;52.236;-0.892;2023-02-23T08:29:08;101115.34;;;6.14;87.13
62928;BME280;51070;52.236;-0.892;2023-02-23T08:31:33;101114.62;;;6.17;86.97
62928;BME280;51070;52.236;-0.892;2023-02-23T08:33:58;101120.13;;;6.23;86.95
62928;BME280;51070;52.236;-0.892;2023-02-23T08:36:23;101118.89;;;6.25;86.41
62928;BME280;51070;52.236;-0.892;2023-02-23T08:38:49;101121.01;;;6.24;86.31
62928;BME280;51070;52.236;-0.892;2023-02-23T08:41:15;101125.55;;;6.22;86.47
62928;BME280;51070;52.236;-0.892;2023-02-23T08:43:40;101123.65;;;6.22;86.21
62928;BME280;51070;52.236;-0.892;2023-02-23T08:46:06;101128.86;;;6.23;86.01
62928;BME280;51070;52.236;-0.892;2023-02-23T08:48:31;101130.86;;;6.22;85.55
62928;BME280;51070;52.236;-0.892;2023-02-23T08:50:57;101131.16;;;6.24;85.41
62928;BME280;51070;52.236;-0.892;2023-02-23T08:53:23;101130.52;;;6.31;85.08
62928;BME280;51070;52.236;-0.892;2023-02-23T08:55:53;101132.91;;;6.40;84.84
62928;BME280;51070;52.236;-0.892;2023-02-23T08:58:19;101133.64;;;6.50;84.68
62928;BME280;51070;52.236;-0.892;2023-02-23T09:00:44;101138.52;;;6.64;84.12
62928;BME280;51070;52.236;-0.892;2023-02-23T09:03:09;101145.77;;;6.77;83.46
62928;BME280;51070;52.236;-0.892;2023-02-23T09:05:37;101151.52;;;6.88;82.98
62928;BME280;51070;52.236;-0.892;2023-02-23T09:08:03;101153.56;;;6.91;82.15
62928;BME280;51070;52.236;-0.892;2023-02-23T09:10:29;101153.81;;;6.93;81.87
62928;BME280;51070;52.236;-0.892;2023-02-23T09:12:56;101153.41;;;6.95;81.79
62928;BME280;51070;52.236;-0.892;2023-02-23T09:15:21;101150.23;;;6.96;81.28
62928;BME280;51070;52.236;-0.892;2023-02-23T09:17:47;101146.74;;;6.99;80.91
62928;BME280;51070;52.236;-0.892;2023-02-23T09:20:12;101138.67;;;6.99;80.37
62928;BME280;51070;52.236;-0.892;2023-02-23T09:22:40;101136.70;;;7.00;80.04
62928;BME280;51070;52.236;-0.892;2023-02-23T09:25:16;101142.61;;;7.08;80.31
62928;BME280;51070;52.236;-0.892;2023-02-23T09:27:50;101140.75;;;7.19;79.99
62928;BME280;51070;52.236;-0.892;2023-02-23T09:30:16;101142.25;;;7.28;79.17
62928;BME280;51070;52.236;-0.892;2023-02-23T09:32:44;101150.52;;;7.34;78.59
62928;BME280;51070;52.236;-0.892;2023-02-23T09:35:10;101147.04;;;7.40;78.98
62928;BME280;51070;52.236;-0.892;2023-02-23T09:37:35;101154.27;;;7.50;77.85
62928;BME280;51070;52.236;-0.892;2023-02-23T09:40:01;101145.88;;;7.61;77.33
62928;BME280;51070;52.236;-0.892;2023-02-23T09:47:50;101146.32;;;8.01;75.57
62928;BME280;51070;52.236;-0.892;2023-02-23T09:50:22;101146.38;;;8.09;75.54
62928;BME280;51070;52.236;-0.892;2023-02-23T09:52:53;101153.18;;;8.18;75.43
62928;BME280;51070;52.236;-0.892;2023-02-23T09:55:21;101152.39;;;8.16;74.65
62928;BME280;51070;52.236;-0.892;2023-02-23T09:57:47;101159.89;;;8.04;74.23
62928;BME280;51070;52.236;-0.892;2023-02-23T10:00:17;101158.51;;;7.90;74.64
62928;BME280;51070;52.236;-0.892;2023-02-23T10:02:50;101165.94;;;7.87;74.61
62928;BME280;51070;52.236;-0.892;2023-02-23T10:05:17;101162.30;;;7.83;74.65
62928;BME280;51070;52.236;-0.892;2023-02-23T10:07:50;101167.20;;;7.81;74.42
62928;BME280;51070;52.236;-0.892;2023-02-23T10:20:42;101167.66;;;8.39;73.37
62928;BME280;51070;52.236;-0.892;2023-02-23T10:23:14;101172.73;;;8.59;73.00
62928;BME280;51070;52.236;-0.892;2023-02-23T10:25:42;101174.92;;;8.68;71.88
62928;BME280;51070;52.236;-0.892;2023-02-23T10:28:11;101172.71;;;8.80;71.05
62928;BME280;51070;52.236;-0.892;2023-02-23T10:30:39;101177.00;;;8.87;70.47
62928;BME280;51070;52.236;-0.892;2023-02-23T10:36:11;101175.67;;;9.46;69.12
62928;BME280;51070;52.236;-0.892;2023-02-23T10:38:38;101168.23;;;10.10;67.87
62928;BME280;51070;52.236;-0.892;2023-02-23T10:41:03;101169.04;;;10.59;65.48
62928;BME280;51070;52.236;-0.892;2023-02-23T10:43:29;101169.55;;;10.85;64.73
62928;BME280;51070;52.236;-0.892;2023-02-23T10:45:55;101170.40;;;10.94;63.69
62928;BME280;51070;52.236;-0.892;2023-02-23T10:48:21;101175.23;;;10.94;63.17
62928;BME280;51070;52.236;-0.892;2023-02-23T10:50:51;101171.64;;;10.77;63.03
62928;BME280;51070;52.236;-0.892;2023-02-23T10:53:21;101172.88;;;10.60;63.50
62928;BME280;51070;52.236;-0.892;2023-02-23T10:55:47;101178.93;;;10.82;61.96
62928;BME280;51070;52.236;-0.892;2023-02-23T10:58:24;101177.39;;;10.91;61.70
62928;BME280;51070;52.236;-0.892;2023-02-23T11:00:50;101177.34;;;11.00;61.33
62928;BME280;51070;52.236;-0.892;2023-02-23T11:03:19;101176.07;;;10.89;61.40
62928;BME280;51070;52.236;-0.892;2023-02-23T11:05:47;101184.04;;;10.94;61.27
62928;BME280;51070;52.236;-0.892;2023-02-23T11:08:25;101183.69;;;10.84;61.25
62928;BME280;51070;52.236;-0.892;2023-02-23T11:11:04;101184.98;;;10.69;61.28
62928;BME280;51070;52.236;-0.892;2023-02-23T11:16:03;101189.40;;;10.37;61.50
62928;BME280;51070;52.236;-0.892;2023-02-23T11:18:29;101190.08;;;10.36;61.34
62928;BME280;51070;52.236;-0.892;2023-02-23T11:20:55;101191.04;;;10.30;60.29
62928;BME280;51070;52.236;-0.892;2023-02-23T11:23:22;101191.83;;;10.08;61.11
62928;BME280;51070;52.236;-0.892;2023-02-23T11:25:49;101192.36;;;9.96;62.06
62928;BME280;51070;52.236;-0.892;2023-02-23T11:28:16;101193.50;;;9.87;62.61
62928;BME280;51070;52.236;-0.892;2023-02-23T11:30:45;101197.48;;;9.83;63.36
62928;BME280;51070;52.236;-0.892;2023-02-23T11:33:13;101196.66;;;9.76;62.70
62928;BME280;51070;52.236;-0.892;2023-02-23T11:35:40;101202.89;;;9.68;62.82
62928;BME280;51070;52.236;-0.892;2023-02-23T11:38:22;101206.45;;;9.59;62.92
62928;BME280;51070;52.236;-0.892;2023-02-23T11:41:00;101204.64;;;9.49;63.69
62928;BME280;51070;52.236;-0.892;2023-02-23T11:43:26;101209.88;;;9.47;63.33
62928;BME280;51070;52.236;-0.892;2023-02-23T11:45:52;101208.49;;;9.39;62.80
62928;BME280;51070;52.236;-0.892;2023-02-23T11:48:40;101212.20;;;9.29;63.24
62928;BME280;51070;52.236;-0.892;2023-02-23T11:51:07;101212.26;;;9.19;63.17
62928;BME280;51070;52.236;-0.892;2023-02-23T11:55:58;101214.30;;;9.03;63.91
62928;BME280;51070;52.236;-0.892;2023-02-23T11:58:41;101213.62;;;8.97;64.55
62928;BME280;51070;52.236;-0.892;2023-02-23T12:01:09;101209.16;;;8.93;64.55
62928;BME280;51070;52.236;-0.892;2023-02-23T12:03:36;101207.93;;;8.89;64.45
62928;BME280;51070;52.236;-0.892;2023-02-23T12:06:02;101211.75;;;8.86;64.46
62928;BME280;51070;52.236;-0.892;2023-02-23T12:08:32;101207.83;;;8.79;64.89
62928;BME280;51070;52.236;-0.892;2023-02-23T12:11:00;101209.45;;;8.77;64.93
62928;BME280;51070;52.236;-0.892;2023-02-23T12:16:06;101213.98;;;8.82;65.07
62928;BME280;51070;52.236;-0.892;2023-02-23T12:18:43;101215.73;;;8.90;65.41
62928;BME280;51070;52.236;-0.892;2023-02-23T12:21:18;101213.17;;;8.98;64.91
62928;BME280;51070;52.236;-0.892;2023-02-23T12:23:48;101211.42;;;9.01;63.29
62928;BME280;51070;52.236;-0.892;2023-02-23T12:26:18;101206.89;;;9.07;63.23
62928;BME280;51070;52.236;-0.892;2023-02-23T12:28:54;101206.02;;;9.14;62.96
62928;BME280;51070;52.236;-0.892;2023-02-23T12:33:56;101195.05;;;9.27;62.36
62928;BME280;51070;52.236;-0.892;2023-02-23T12:38:59;101195.45;;;9.52;61.73
62928;BME280;51070;52.236;-0.892;2023-02-23T12:41:39;101192.05;;;9.65;61.76
62928;BME280;51070;52.236;-0.892;2023-02-23T12:44:10;101194.20;;;9.75;60.93
62928;BME280;51070;52.236;-0.892;2023-02-23T12:46:44;101193.73;;;9.80;60.27
62928;BME280;51070;52.236;-0.892;2023-02-23T12:51:59;101188.75;;;9.81;59.98
62928;BME280;51070;52.236;-0.892;2023-02-23T12:54:26;101187.94;;;9.82;60.28
62928;BME280;51070;52.236;-0.892;2023-02-23T12:59:43;101189.27;;;9.85;58.90
62928;BME280;51070;52.236;-0.892;2023-02-23T13:12:18;101179.39;;;9.63;59.00
62928;BME280;51070;52.236;-0.892;2023-02-23T13:17:32;101182.72;;;9.73;58.94
62928;BME280;51070;52.236;-0.892;2023-02-23T13:20:02;101180.80;;;9.73;58.74
62928;BME280;51070;52.236;-0.892;2023-02-23T13:25:27;101183.31;;;9.62;59.04
62928;BME280;51070;52.236;-0.892;2023-02-23T13:27:56;101184.05;;;9.60;58.93
62928;BME280;51070;52.236;-0.892;2023-02-23T13:30:22;101189.31;;;9.54;59.04
62928;BME280;51070;52.236;-0.892;2023-02-23T13:32:48;101193.48;;;9.46;59.54
62928;BME280;51070;52.236;-0.892;2023-02-23T13:35:14;101192.94;;;9.42;59.54
62928;BME280;51070;52.236;-0.892;2023-02-23T13:37:54;101189.54;;;9.43;59.54
62928;BME280;51070;52.236;-0.892;2023-02-23T13:43:16;101183.60;;;9.45;58.51
62928;BME280;51070;52.236;-0.892;2023-02-23T13:46:05;101182.88;;;9.45;58.73
62928;BME280;51070;52.236;-0.892;2023-02-23T13:53:41;101185.89;;;9.47;58.81
62928;BME280;51070;52.236;-0.892;2023-02-23T13:56:08;101188.28;;;9.46;58.41
62928;BME280;51070;52.236;-0.892;2023-02-23T13:58:34;101187.49;;;9.43;58.09
62928;BME280;51070;52.236;-0.892;2023-02-23T14:01:05;101188.75;;;9.41;58.28
62928;BME280;51070;52.236;-0.892;2023-02-23T14:03:34;101190.75;;;9.43;58.28
62928;BME280;51070;52.236;-0.892;2023-02-23T14:06:00;101189.21;;;9.47;58.43
62928;BME280;51070;52.236;-0.892;2023-02-23T14:08:36;101186.17;;;9.53;57.97
62928;BME280;51070;52.236;-0.892;2023-02-23T14:11:02;101185.72;;;9.54;56.37
62928;BME280;51070;52.236;-0.892;2023-02-23T14:13:30;101186.61;;;9.47;56.09
62928;BME280;51070;52.236;-0.892;2023-02-23T14:18:33;101192.33;;;9.32;56.07
62928;BME280;51070;52.236;-0.892;2023-02-23T14:23:32;101186.13;;;9.24;55.88
62928;BME280;51070;52.236;-0.892;2023-02-23T14:26:35;101190.91;;;9.24;56.03
62928;BME280;51070;52.236;-0.892;2023-02-23T14:31:55;101193.99;;;9.42;55.32
62928;BME280;51070;52.236;-0.892;2023-02-23T14:34:21;101195.16;;;9.46;54.85
62928;BME280;51070;52.236;-0.892;2023-02-23T14:36:49;101200.40;;;9.47;54.83
62928;BME280;51070;52.236;-0.892;2023-02-23T14:39:26;101199.77;;;9.44;54.35
62928;BME280;51070;52.236;-0.892;2023-02-23T14:41:53;101205.13;;;9.37;54.61
62928;BME280;51070;52.236;-0.892;2023-02-23T14:46:48;101204.20;;;9.27;56.28
62928;BME280;51070;52.236;-0.892;2023-02-23T14:49:18;101201.98;;;9.24;56.78
62928;BME280;51070;52.236;-0.892;2023-02-23T14:51:45;101208.90;;;9.17;56.90
62928;BME280;51070;52.236;-0.892;2023-02-23T14:57:17;101213.90;;;8.87;57.49
62928;BME280;51070;52.236;-0.892;2023-02-23T14:59:43;101212.54;;;8.76;57.52
62928;BME280;51070;52.236;-0.892;2023-02-23T15:02:20;101215.23;;;8.72;57.43
62928;BME280;51070;52.236;-0.892;2023-02-23T15:04:46;101216.81;;;8.69;57.89